Terminal Aerodrome Forecast
Issued by NWS Blacksburg, VA

Home | Current Version | Previous Version | Text Only | Print | Product List | Glossary On
Versions: 1 2 3 4 5 6 7 8 9 10 11 12 13 14 15 16 17 18 19 20 21 22 23 24 25 26 27 28 29 30 31 32 33 34 35 36 37 38 39 40 41 42 43 44 45 46 47 48 49 50
000
FTUS41 KRNK 052337
TAFDAN
TAF
KDAN 052337Z 0600/0624 21009G18KT 3SM TSRA BKN035CB
     FM060100 11004KT 5SM -SHRA OVC040
     FM060900 10003KT 3SM BR OVC005
     FM061400 24006KT P6SM SCT020
     FM061900 23009KT P6SM BKN040=

USA.gov is the U.S. government's official web portal to all federal, state and local government web resources and services.